sensor_id;sensor_type;location;lat;lon;timestamp;temperature;humidity
14993;DHT22;7592;51.088;13.732;2022-07-29T00:00:11;17.40;77.40
14993;DHT22;7592;51.088;13.732;2022-07-29T00:05:04;17.30;78.10
14993;DHT22;7592;51.088;13.732;2022-07-29T00:09:57;17.20;78.80
14993;DHT22;7592;51.088;13.732;2022-07-29T00:14:49;17.10;79.70
14993;DHT22;7592;51.088;13.732;2022-07-29T00:19:42;17.00;80.80
14993;DHT22;7592;51.088;13.732;2022-07-29T00:24:36;16.90;82.10
14993;DHT22;7592;51.088;13.732;2022-07-29T00:29:29;16.70;83.20
14993;DHT22;7592;51.088;13.732;2022-07-29T00:34:25;16.80;84.90
14993;DHT22;7592;51.088;13.732;2022-07-29T00:45:03;16.60;87.50
14993;DHT22;7592;51.088;13.732;2022-07-29T00:49:59;16.60;88.90
14993;DHT22;7592;51.088;13.732;2022-07-29T00:54:52;16.60;90.00
14993;DHT22;7592;51.088;13.732;2022-07-29T00:59:45;16.60;90.40
14993;DHT22;7592;51.088;13.732;2022-07-29T01:04:37;16.60;91.10
14993;DHT22;7592;51.088;13.732;2022-07-29T01:09:34;16.50;92.80
14993;DHT22;7592;51.088;13.732;2022-07-29T01:14:38;16.40;94.30
14993;DHT22;7592;51.088;13.732;2022-07-29T01:19:48;16.30;95.70
14993;DHT22;7592;51.088;13.732;2022-07-29T01:24:57;16.10;97.50
14993;DHT22;7592;51.088;13.732;2022-07-29T01:29:58;16.00;99.90
14993;DHT22;7592;51.088;13.732;2022-07-29T01:40:03;15.80;99.90
14993;DHT22;7592;51.088;13.732;2022-07-29T01:45:18;15.90;99.90
14993;DHT22;7592;51.088;13.732;2022-07-29T01:50:15;16.00;99.90
14993;DHT22;7592;51.088;13.732;2022-07-29T01:55:13;16.00;99.90
14993;DHT22;7592;51.088;13.732;2022-07-29T02:00:07;15.90;99.90
14993;DHT22;7592;51.088;13.732;2022-07-29T02:05:08;15.80;99.90
14993;DHT22;7592;51.088;13.732;2022-07-29T02:10:05;15.90;99.90
14993;DHT22;7592;51.088;13.732;2022-07-29T02:15:09;15.90;99.90
14993;DHT22;7592;51.088;13.732;2022-07-29T02:20:06;16.00;99.90
14993;DHT22;7592;51.088;13.732;2022-07-29T02:25:01;16.00;99.90
14993;DHT22;7592;51.088;13.732;2022-07-29T02:29:58;16.00;99.90
14993;DHT22;7592;51.088;13.732;2022-07-29T02:34:53;16.00;99.90
14993;DHT22;7592;51.088;13.732;2022-07-29T02:39:47;16.00;99.90
14993;DHT22;7592;51.088;13.732;2022-07-29T02:44:41;16.10;99.90
14993;DHT22;7592;51.088;13.732;2022-07-29T02:49:42;16.00;99.90
14993;DHT22;7592;51.088;13.732;2022-07-29T02:55:01;15.90;99.90
14993;DHT22;7592;51.088;13.732;2022-07-29T03:00:09;15.90;99.90
14993;DHT22;7592;51.088;13.732;2022-07-29T03:05:04;15.90;99.90
14993;DHT22;7592;51.088;13.732;2022-07-29T03:10:02;15.90;99.90
14993;DHT22;7592;51.088;13.732;2022-07-29T03:15:04;15.90;99.90
14993;DHT22;7592;51.088;13.732;2022-07-29T03:19:59;15.90;99.90
14993;DHT22;7592;51.088;13.732;2022-07-29T03:24:52;15.90;99.90
14993;DHT22;7592;51.088;13.732;2022-07-29T03:29:44;16.00;99.90
14993;DHT22;7592;51.088;13.732;2022-07-29T03:34:41;16.00;99.90
14993;DHT22;7592;51.088;13.732;2022-07-29T03:39:38;16.20;99.90
14993;DHT22;7592;51.088;13.732;2022-07-29T03:44:33;16.20;99.90
14993;DHT22;7592;51.088;13.732;2022-07-29T03:49:26;16.20;99.90
14993;DHT22;7592;51.088;13.732;2022-07-29T03:54:20;16.20;99.90
14993;DHT22;7592;51.088;13.732;2022-07-29T03:59:14;16.20;99.90
14993;DHT22;7592;51.088;13.732;2022-07-29T04:04:07;16.20;99.90
14993;DHT22;7592;51.088;13.732;2022-07-29T04:09:00;16.20;99.90
14993;DHT22;7592;51.088;13.732;2022-07-29T04:13:53;16.20;99.90
14993;DHT22;7592;51.088;13.732;2022-07-29T04:18:45;16.20;99.90
14993;DHT22;7592;51.088;13.732;2022-07-29T04:23:38;16.30;99.90
14993;DHT22;7592;51.088;13.732;2022-07-29T04:28:44;16.50;99.90
14993;DHT22;7592;51.088;13.732;2022-07-29T04:33:37;16.80;99.90
14993;DHT22;7592;51.088;13.732;2022-07-29T04:38:29;17.10;99.90
14993;DHT22;7592;51.088;13.732;2022-07-29T04:43:22;17.40;99.90
14993;DHT22;7592;51.088;13.732;2022-07-29T04:48:17;17.80;99.90
14993;DHT22;7592;51.088;13.732;2022-07-29T04:53:10;18.20;99.90
14993;DHT22;7592;51.088;13.732;2022-07-29T04:58:02;18.40;99.90
14993;DHT22;7592;51.088;13.732;2022-07-29T05:02:55;18.70;99.90
14993;DHT22;7592;51.088;13.732;2022-07-29T05:07:48;19.00;99.90
14993;DHT22;7592;51.088;13.732;2022-07-29T05:12:41;19.90;99.90
14993;DHT22;7592;51.088;13.732;2022-07-29T05:17:33;21.80;99.90
14993;DHT22;7592;51.088;13.732;2022-07-29T05:22:26;23.50;99.00
14993;DHT22;7592;51.088;13.732;2022-07-29T05:27:20;23.90;95.20
14993;DHT22;7592;51.088;13.732;2022-07-29T05:32:13;24.20;93.20
14993;DHT22;7592;51.088;13.732;2022-07-29T05:37:06;25.20;90.70
14993;DHT22;7592;51.088;13.732;2022-07-29T05:41:59;27.70;81.40
14993;DHT22;7592;51.088;13.732;2022-07-29T05:46:52;31.10;65.20
14993;DHT22;7592;51.088;13.732;2022-07-29T05:51:44;29.00;64.40
14993;DHT22;7592;51.088;13.732;2022-07-29T05:56:38;27.00;69.10
14993;DHT22;7592;51.088;13.732;2022-07-29T06:01:30;26.00;72.30
14993;DHT22;7592;51.088;13.732;2022-07-29T06:06:25;25.50;73.80
14993;DHT22;7592;51.088;13.732;2022-07-29T06:11:18;25.40;73.80
14993;DHT22;7592;51.088;13.732;2022-07-29T06:16:10;25.70;73.00
14993;DHT22;7592;51.088;13.732;2022-07-29T06:21:09;25.00;74.90
14993;DHT22;7592;51.088;13.732;2022-07-29T06:26:02;24.90;75.50
14993;DHT22;7592;51.088;13.732;2022-07-29T06:30:54;24.80;75.70
14993;DHT22;7592;51.088;13.732;2022-07-29T06:35:46;24.50;76.60
14993;DHT22;7592;51.088;13.732;2022-07-29T06:40:45;24.50;77.50
14993;DHT22;7592;51.088;13.732;2022-07-29T06:45:53;24.50;77.80
14993;DHT22;7592;51.088;13.732;2022-07-29T06:50:47;24.30;78.00
14993;DHT22;7592;51.088;13.732;2022-07-29T06:55:44;24.30;78.50
14993;DHT22;7592;51.088;13.732;2022-07-29T07:00:38;24.40;78.30
14993;DHT22;7592;51.088;13.732;2022-07-29T07:05:30;24.60;77.70
14993;DHT22;7592;51.088;13.732;2022-07-29T07:10:28;24.80;78.10
14993;DHT22;7592;51.088;13.732;2022-07-29T07:15:32;25.00;77.90
14993;DHT22;7592;51.088;13.732;2022-07-29T07:20:31;25.60;77.10
14993;DHT22;7592;51.088;13.732;2022-07-29T07:25:25;25.80;76.10
14993;DHT22;7592;51.088;13.732;2022-07-29T07:30:22;26.20;76.10
14993;DHT22;7592;51.088;13.732;2022-07-29T07:35:21;26.30;75.80
14993;DHT22;7592;51.088;13.732;2022-07-29T07:40:24;26.40;75.10
14993;DHT22;7592;51.088;13.732;2022-07-29T07:45:29;26.70;73.60
14993;DHT22;7592;51.088;13.732;2022-07-29T07:50:25;27.40;71.20
14993;DHT22;7592;51.088;13.732;2022-07-29T07:55:23;27.70;70.00
14993;DHT22;7592;51.088;13.732;2022-07-29T08:00:17;27.90;70.20
14993;DHT22;7592;51.088;13.732;2022-07-29T08:05:21;27.60;69.70
14993;DHT22;7592;51.088;13.732;2022-07-29T08:10:19;27.60;69.60
14993;DHT22;7592;51.088;13.732;2022-07-29T08:15:25;27.80;68.90
14993;DHT22;7592;51.088;13.732;2022-07-29T08:20:23;28.00;69.10
14993;DHT22;7592;51.088;13.732;2022-07-29T08:25:29;28.80;67.10
14993;DHT22;7592;51.088;13.732;2022-07-29T08:30:40;29.70;66.30
14993;DHT22;7592;51.088;13.732;2022-07-29T08:35:34;31.10;63.20
14993;DHT22;7592;51.088;13.732;2022-07-29T08:40:40;32.00;60.60
14993;DHT22;7592;51.088;13.732;2022-07-29T08:45:50;33.10;58.40
14993;DHT22;7592;51.088;13.732;2022-07-29T08:50:55;35.50;54.60
14993;DHT22;7592;51.088;13.732;2022-07-29T08:56:17;36.10;52.10
14993;DHT22;7592;51.088;13.732;2022-07-29T09:01:29;36.50;51.10
14993;DHT22;7592;51.088;13.732;2022-07-29T09:06:40;39.30;48.10
14993;DHT22;7592;51.088;13.732;2022-07-29T09:11:36;40.70;44.90
14993;DHT22;7592;51.088;13.732;2022-07-29T09:16:45;39.80;45.10
14993;DHT22;7592;51.088;13.732;2022-07-29T09:21:47;39.50;44.30
14993;DHT22;7592;51.088;13.732;2022-07-29T09:26:51;39.00;44.30
14993;DHT22;7592;51.088;13.732;2022-07-29T09:31:52;37.40;45.30
14993;DHT22;7592;51.088;13.732;2022-07-29T09:36:49;36.70;46.40
14993;DHT22;7592;51.088;13.732;2022-07-29T09:41:48;35.20;48.20
14993;DHT22;7592;51.088;13.732;2022-07-29T09:46:56;34.50;49.10
14993;DHT22;7592;51.088;13.732;2022-07-29T09:52:06;34.70;48.90
14993;DHT22;7592;51.088;13.732;2022-07-29T09:57:00;33.60;49.90
14993;DHT22;7592;51.088;13.732;2022-07-29T10:01:54;33.60;49.90
14993;DHT22;7592;51.088;13.732;2022-07-29T10:07:00;34.10;48.90
14993;DHT22;7592;51.088;13.732;2022-07-29T10:12:07;34.70;48.20
14993;DHT22;7592;51.088;13.732;2022-07-29T10:17:10;35.10;47.80
14993;DHT22;7592;51.088;13.732;2022-07-29T10:22:53;35.80;47.10
14993;DHT22;7592;51.088;13.732;2022-07-29T10:27:53;39.30;43.70
14993;DHT22;7592;51.088;13.732;2022-07-29T10:33:08;42.10;41.40
14993;DHT22;7592;51.088;13.732;2022-07-29T10:43:32;38.20;43.30
14993;DHT22;7592;51.088;13.732;2022-07-29T10:48:30;38.20;42.90
14993;DHT22;7592;51.088;13.732;2022-07-29T10:53:49;38.60;43.10
14993;DHT22;7592;51.088;13.732;2022-07-29T11:10:19;39.80;41.60
14993;DHT22;7592;51.088;13.732;2022-07-29T11:15:26;41.20;40.60
14993;DHT22;7592;51.088;13.732;2022-07-29T11:20:42;41.40;39.80
14993;DHT22;7592;51.088;13.732;2022-07-29T11:26:17;40.50;39.90
14993;DHT22;7592;51.088;13.732;2022-07-29T11:31:43;41.30;39.30
14993;DHT22;7592;51.088;13.732;2022-07-29T11:47:25;36.70;44.00
14993;DHT22;7592;51.088;13.732;2022-07-29T11:52:19;34.50;46.30
14993;DHT22;7592;51.088;13.732;2022-07-29T11:57:19;33.60;47.20
14993;DHT22;7592;51.088;13.732;2022-07-29T12:02:13;33.00;48.20
14993;DHT22;7592;51.088;13.732;2022-07-29T12:07:32;32.70;49.30
14993;DHT22;7592;51.088;13.732;2022-07-29T12:12:26;32.90;48.50
14993;DHT22;7592;51.088;13.732;2022-07-29T12:17:30;32.90;48.60
14993;DHT22;7592;51.088;13.732;2022-07-29T12:22:34;33.40;48.10
14993;DHT22;7592;51.088;13.732;2022-07-29T12:27:30;34.30;47.20
14993;DHT22;7592;51.088;13.732;2022-07-29T12:37:36;34.00;47.80
14993;DHT22;7592;51.088;13.732;2022-07-29T12:42:33;33.20;48.80
14993;DHT22;7592;51.088;13.732;2022-07-29T12:47:26;33.00;49.00
14993;DHT22;7592;51.088;13.732;2022-07-29T12:52:33;32.80;49.60
14993;DHT22;7592;51.088;13.732;2022-07-29T12:57:26;32.20;50.30
14993;DHT22;7592;51.088;13.732;2022-07-29T13:02:22;31.80;51.10
14993;DHT22;7592;51.088;13.732;2022-07-29T13:07:27;31.90;50.80
14993;DHT22;7592;51.088;13.732;2022-07-29T13:17:58;31.80;51.00
14993;DHT22;7592;51.088;13.732;2022-07-29T13:22:51;31.80;51.40
14993;DHT22;7592;51.088;13.732;2022-07-29T13:27:43;32.10;51.30
14993;DHT22;7592;51.088;13.732;2022-07-29T13:32:37;32.00;50.80
14993;DHT22;7592;51.088;13.732;2022-07-29T13:37:33;31.80;51.00
14993;DHT22;7592;51.088;13.732;2022-07-29T13:42:26;31.90;51.10
14993;DHT22;7592;51.088;13.732;2022-07-29T13:47:19;32.30;50.60
14993;DHT22;7592;51.088;13.732;2022-07-29T13:52:12;32.00;50.70
14993;DHT22;7592;51.088;13.732;2022-07-29T13:57:04;31.50;51.50
14993;DHT22;7592;51.088;13.732;2022-07-29T14:01:57;31.30;51.80
14993;DHT22;7592;51.088;13.732;2022-07-29T14:06:50;31.40;51.60
14993;DHT22;7592;51.088;13.732;2022-07-29T14:11:43;31.70;51.40
14993;DHT22;7592;51.088;13.732;2022-07-29T14:16:35;31.40;51.50
14993;DHT22;7592;51.088;13.732;2022-07-29T14:21:34;31.50;52.00
14993;DHT22;7592;51.088;13.732;2022-07-29T14:26:27;31.70;51.80
14993;DHT22;7592;51.088;13.732;2022-07-29T14:31:20;31.50;52.00
14993;DHT22;7592;51.088;13.732;2022-07-29T14:36:12;31.30;51.70
14993;DHT22;7592;51.088;13.732;2022-07-29T14:41:07;31.30;52.00
14993;DHT22;7592;51.088;13.732;2022-07-29T14:46:00;31.60;51.70
14993;DHT22;7592;51.088;13.732;2022-07-29T14:50:59;31.40;51.40
14993;DHT22;7592;51.088;13.732;2022-07-29T14:55:55;31.40;51.50
14993;DHT22;7592;51.088;13.732;2022-07-29T15:01:06;31.70;51.40
14993;DHT22;7592;51.088;13.732;2022-07-29T15:05:58;31.60;51.80
14993;DHT22;7592;51.088;13.732;2022-07-29T15:10:50;31.10;52.40
14993;DHT22;7592;51.088;13.732;2022-07-29T15:15:43;30.80;53.20
14993;DHT22;7592;51.088;13.732;2022-07-29T15:20:36;30.70;53.20
14993;DHT22;7592;51.088;13.732;2022-07-29T15:25:28;30.40;53.70
14993;DHT22;7592;51.088;13.732;2022-07-29T15:30:21;30.10;54.40
14993;DHT22;7592;51.088;13.732;2022-07-29T15:35:25;29.80;54.90
14993;DHT22;7592;51.088;13.732;2022-07-29T15:40:18;29.80;55.20
14993;DHT22;7592;51.088;13.732;2022-07-29T15:45:11;29.60;55.60
14993;DHT22;7592;51.088;13.732;2022-07-29T15:50:03;29.40;55.80
14993;DHT22;7592;51.088;13.732;2022-07-29T15:54:56;29.40;56.00
14993;DHT22;7592;51.088;13.732;2022-07-29T15:59:48;29.40;55.60
14993;DHT22;7592;51.088;13.732;2022-07-29T16:04:41;29.40;55.80
14993;DHT22;7592;51.088;13.732;2022-07-29T16:09:33;29.40;55.70
14993;DHT22;7592;51.088;13.732;2022-07-29T16:14:26;29.40;55.50
14993;DHT22;7592;51.088;13.732;2022-07-29T16:19:19;29.20;55.90
14993;DHT22;7592;51.088;13.732;2022-07-29T16:24:11;29.20;56.10
14993;DHT22;7592;51.088;13.732;2022-07-29T16:29:03;29.10;56.00
14993;DHT22;7592;51.088;13.732;2022-07-29T16:33:56;29.10;56.00
14993;DHT22;7592;51.088;13.732;2022-07-29T16:38:49;28.90;56.20
14993;DHT22;7592;51.088;13.732;2022-07-29T16:43:41;28.80;56.50
14993;DHT22;7592;51.088;13.732;2022-07-29T16:48:34;28.80;56.40
14993;DHT22;7592;51.088;13.732;2022-07-29T16:53:29;28.60;56.80
14993;DHT22;7592;51.088;13.732;2022-07-29T16:58:21;28.60;56.70
14993;DHT22;7592;51.088;13.732;2022-07-29T17:03:14;28.50;56.40
14993;DHT22;7592;51.088;13.732;2022-07-29T17:08:06;28.40;56.50
14993;DHT22;7592;51.088;13.732;2022-07-29T17:12:59;28.30;56.40
14993;DHT22;7592;51.088;13.732;2022-07-29T17:17:51;28.30;56.70
14993;DHT22;7592;51.088;13.732;2022-07-29T17:22:47;28.20;56.90
14993;DHT22;7592;51.088;13.732;2022-07-29T17:27:40;28.10;56.90
14993;DHT22;7592;51.088;13.732;2022-07-29T17:32:33;28.10;57.00
14993;DHT22;7592;51.088;13.732;2022-07-29T17:37:30;28.10;57.10
14993;DHT22;7592;51.088;13.732;2022-07-29T17:42:23;28.00;57.40
14993;DHT22;7592;51.088;13.732;2022-07-29T17:47:16;27.80;57.50
14993;DHT22;7592;51.088;13.732;2022-07-29T17:52:08;27.70;58.00
14993;DHT22;7592;51.088;13.732;2022-07-29T17:57:01;27.50;57.90
14993;DHT22;7592;51.088;13.732;2022-07-29T18:01:53;27.40;58.60
14993;DHT22;7592;51.088;13.732;2022-07-29T18:06:46;27.30;58.90
14993;DHT22;7592;51.088;13.732;2022-07-29T18:11:38;27.20;59.10
14993;DHT22;7592;51.088;13.732;2022-07-29T18:16:35;27.00;59.50
14993;DHT22;7592;51.088;13.732;2022-07-29T18:21:29;26.80;60.00
14993;DHT22;7592;51.088;13.732;2022-07-29T18:26:44;26.70;60.50
14993;DHT22;7592;51.088;13.732;2022-07-29T18:51:38;25.80;64.00
14993;DHT22;7592;51.088;13.732;2022-07-29T18:56:30;25.60;64.80
14993;DHT22;7592;51.088;13.732;2022-07-29T19:01:29;25.50;65.00
14993;DHT22;7592;51.088;13.732;2022-07-29T19:06:22;25.30;65.40
14993;DHT22;7592;51.088;13.732;2022-07-29T19:11:17;25.20;66.20
14993;DHT22;7592;51.088;13.732;2022-07-29T19:16:09;25.00;69.40
14993;DHT22;7592;51.088;13.732;2022-07-29T19:21:10;24.90;69.70
14993;DHT22;7592;51.088;13.732;2022-07-29T19:26:02;24.80;70.20
14993;DHT22;7592;51.088;13.732;2022-07-29T19:30:59;24.80;71.10
14993;DHT22;7592;51.088;13.732;2022-07-29T19:35:51;24.60;74.20
14993;DHT22;7592;51.088;13.732;2022-07-29T19:40:45;24.50;76.20
14993;DHT22;7592;51.088;13.732;2022-07-29T19:45:38;24.40;77.80
14993;DHT22;7592;51.088;13.732;2022-07-29T19:50:31;24.20;79.30
14993;DHT22;7592;51.088;13.732;2022-07-29T21:52:04;22.80;97.70
14993;DHT22;7592;51.088;13.732;2022-07-29T21:56:59;22.80;98.50
14993;DHT22;7592;51.088;13.732;2022-07-29T22:01:51;22.80;98.80
14993;DHT22;7592;51.088;13.732;2022-07-29T22:06:44;23.00;98.80
14993;DHT22;7592;51.088;13.732;2022-07-29T22:11:36;22.90;99.60
14993;DHT22;7592;51.088;13.732;2022-07-29T22:16:28;22.80;99.90
14993;DHT22;7592;51.088;13.732;2022-07-29T22:21:21;22.80;99.90
14993;DHT22;7592;51.088;13.732;2022-07-29T22:26:13;22.80;99.90
14993;DHT22;7592;51.088;13.732;2022-07-29T22:31:05;22.80;99.90
14993;DHT22;7592;51.088;13.732;2022-07-29T22:35:57;22.70;99.90
14993;DHT22;7592;51.088;13.732;2022-07-29T22:40:49;22.80;99.90
14993;DHT22;7592;51.088;13.732;2022-07-29T22:45:43;22.70;99.90
14993;DHT22;7592;51.088;13.732;2022-07-29T22:50:35;22.70;99.90
14993;DHT22;7592;51.088;13.732;2022-07-29T22:55:27;22.80;99.90
14993;DHT22;7592;51.088;13.732;2022-07-29T23:00:20;22.90;99.90
14993;DHT22;7592;51.088;13.732;2022-07-29T23:05:12;22.90;99.90
14993;DHT22;7592;51.088;13.732;2022-07-29T23:10:07;22.90;99.90
14993;DHT22;7592;51.088;13.732;2022-07-29T23:14:59;22.90;99.90
14993;DHT22;7592;51.088;13.732;2022-07-29T23:19:51;22.90;99.90
14993;DHT22;7592;51.088;13.732;2022-07-29T23:24:43;22.80;99.90
14993;DHT22;7592;51.088;13.732;2022-07-29T23:29:35;22.80;99.90
14993;DHT22;7592;51.088;13.732;2022-07-29T23:34:28;22.80;99.90
14993;DHT22;7592;51.088;13.732;2022-07-29T23:39:20;22.80;99.90
14993;DHT22;7592;51.088;13.732;2022-07-29T23:44:12;22.80;99.90
14993;DHT22;7592;51.088;13.732;2022-07-29T23:49:04;22.70;99.90
14993;DHT22;7592;51.088;13.732;2022-07-29T23:53:56;22.70;99.90
14993;DHT22;7592;51.088;13.732;2022-07-29T23:58:49;22.70;99.90
